sensor_id;sensor_type;location;lat;lon;timestamp;P1;durP1;ratioP1;P2;durP2;ratioP2
13969;SDS011;7057;49.984;8.404;2022-07-12T00:00:37;2.00;;;1.80;;
13969;SDS011;7057;49.984;8.404;2022-07-12T00:03:04;2.70;;;1.40;;
13969;SDS011;7057;49.984;8.404;2022-07-12T00:05:32;1.73;;;1.60;;
13969;SDS011;7057;49.984;8.404;2022-07-12T00:08:00;2.70;;;1.70;;
13969;SDS011;7057;49.984;8.404;2022-07-12T00:10:27;1.70;;;1.60;;
13969;SDS011;7057;49.984;8.404;2022-07-12T00:12:54;1.87;;;1.70;;
13969;SDS011;7057;49.984;8.404;2022-07-12T00:15:22;2.50;;;1.90;;
13969;SDS011;7057;49.984;8.404;2022-07-12T00:17:49;3.10;;;1.93;;
13969;SDS011;7057;49.984;8.404;2022-07-12T00:20:16;2.40;;;1.40;;
13969;SDS011;7057;49.984;8.404;2022-07-12T00:22:43;2.10;;;1.90;;
13969;SDS011;7057;49.984;8.404;2022-07-12T00:25:13;1.70;;;1.60;;
13969;SDS011;7057;49.984;8.404;2022-07-12T00:27:40;1.63;;;1.53;;
13969;SDS011;7057;49.984;8.404;2022-07-12T00:30:07;1.93;;;1.57;;
13969;SDS011;7057;49.984;8.404;2022-07-12T00:32:35;1.90;;;1.80;;
13969;SDS011;7057;49.984;8.404;2022-07-12T00:35:03;1.80;;;1.63;;
13969;SDS011;7057;49.984;8.404;2022-07-12T00:37:31;2.07;;;1.90;;
13969;SDS011;7057;49.984;8.404;2022-07-12T00:39:58;1.63;;;1.53;;
13969;SDS011;7057;49.984;8.404;2022-07-12T00:42:27;2.70;;;1.97;;
13969;SDS011;7057;49.984;8.404;2022-07-12T00:44:54;1.80;;;1.70;;
13969;SDS011;7057;49.984;8.404;2022-07-12T00:47:24;1.87;;;1.77;;
13969;SDS011;7057;49.984;8.404;2022-07-12T00:49:57;1.70;;;1.60;;
13969;SDS011;7057;49.984;8.404;2022-07-12T00:52:25;2.57;;;2.00;;
13969;SDS011;7057;49.984;8.404;2022-07-12T00:54:52;2.00;;;1.80;;
13969;SDS011;7057;49.984;8.404;2022-07-12T00:57:19;2.17;;;1.80;;
13969;SDS011;7057;49.984;8.404;2022-07-12T00:59:48;2.20;;;1.97;;
13969;SDS011;7057;49.984;8.404;2022-07-12T01:02:16;1.80;;;1.70;;
13969;SDS011;7057;49.984;8.404;2022-07-12T01:04:44;2.07;;;1.80;;
13969;SDS011;7057;49.984;8.404;2022-07-12T01:07:12;3.07;;;1.90;;
13969;SDS011;7057;49.984;8.404;2022-07-12T01:09:40;1.97;;;1.77;;
13969;SDS011;7057;49.984;8.404;2022-07-12T01:12:08;2.93;;;1.83;;
13969;SDS011;7057;49.984;8.404;2022-07-12T01:14:35;2.20;;;1.90;;
13969;SDS011;7057;49.984;8.404;2022-07-12T01:17:05;2.10;;;1.80;;
13969;SDS011;7057;49.984;8.404;2022-07-12T01:19:32;2.30;;;2.00;;
13969;SDS011;7057;49.984;8.404;2022-07-12T01:22:02;2.00;;;1.67;;
13969;SDS011;7057;49.984;8.404;2022-07-12T01:24:36;2.00;;;1.80;;
13969;SDS011;7057;49.984;8.404;2022-07-12T01:27:04;2.47;;;1.80;;
13969;SDS011;7057;49.984;8.404;2022-07-12T01:29:32;2.40;;;2.00;;
13969;SDS011;7057;49.984;8.404;2022-07-12T01:31:59;1.80;;;1.70;;
13969;SDS011;7057;49.984;8.404;2022-07-12T01:34:48;3.20;;;2.00;;
13969;SDS011;7057;49.984;8.404;2022-07-12T01:37:17;2.23;;;1.70;;
13969;SDS011;7057;49.984;8.404;2022-07-12T01:39:47;1.93;;;1.80;;
13969;SDS011;7057;49.984;8.404;2022-07-12T01:42:15;1.97;;;1.87;;
13969;SDS011;7057;49.984;8.404;2022-07-12T01:44:42;2.37;;;1.87;;
13969;SDS011;7057;49.984;8.404;2022-07-12T01:47:09;2.03;;;1.80;;
13969;SDS011;7057;49.984;8.404;2022-07-12T01:49:37;1.70;;;1.60;;
13969;SDS011;7057;49.984;8.404;2022-07-12T01:52:04;2.47;;;2.10;;
13969;SDS011;7057;49.984;8.404;2022-07-12T01:54:33;2.17;;;1.73;;
13969;SDS011;7057;49.984;8.404;2022-07-12T01:57:02;2.07;;;1.80;;
13969;SDS011;7057;49.984;8.404;2022-07-12T01:59:30;3.07;;;2.10;;
13969;SDS011;7057;49.984;8.404;2022-07-12T02:01:57;2.37;;;2.13;;
13969;SDS011;7057;49.984;8.404;2022-07-12T02:04:24;2.20;;;2.00;;
13969;SDS011;7057;49.984;8.404;2022-07-12T02:06:52;2.67;;;2.20;;
13969;SDS011;7057;49.984;8.404;2022-07-12T02:09:19;2.03;;;1.87;;
13969;SDS011;7057;49.984;8.404;2022-07-12T02:11:46;2.03;;;1.70;;
13969;SDS011;7057;49.984;8.404;2022-07-12T02:14:15;2.73;;;1.90;;
13969;SDS011;7057;49.984;8.404;2022-07-12T02:16:42;2.60;;;2.17;;
13969;SDS011;7057;49.984;8.404;2022-07-12T02:19:10;2.73;;;1.90;;
13969;SDS011;7057;49.984;8.404;2022-07-12T02:21:37;3.23;;;2.07;;
13969;SDS011;7057;49.984;8.404;2022-07-12T02:24:05;1.90;;;1.80;;
13969;SDS011;7057;49.984;8.404;2022-07-12T02:26:33;2.10;;;1.90;;
13969;SDS011;7057;49.984;8.404;2022-07-12T02:29:00;3.50;;;2.40;;
13969;SDS011;7057;49.984;8.404;2022-07-12T02:31:29;3.03;;;2.00;;
13969;SDS011;7057;49.984;8.404;2022-07-12T02:33:56;2.30;;;2.10;;
13969;SDS011;7057;49.984;8.404;2022-07-12T02:36:24;1.80;;;1.70;;
13969;SDS011;7057;49.984;8.404;2022-07-12T02:38:51;2.57;;;1.97;;
13969;SDS011;7057;49.984;8.404;2022-07-12T02:41:19;2.67;;;2.00;;
13969;SDS011;7057;49.984;8.404;2022-07-12T02:43:46;3.17;;;1.90;;
13969;SDS011;7057;49.984;8.404;2022-07-12T02:46:13;2.40;;;2.20;;
13969;SDS011;7057;49.984;8.404;2022-07-12T02:48:41;1.80;;;1.70;;
13969;SDS011;7057;49.984;8.404;2022-07-12T02:51:09;2.40;;;2.10;;
13969;SDS011;7057;49.984;8.404;2022-07-12T02:53:36;2.30;;;2.07;;
13969;SDS011;7057;49.984;8.404;2022-07-12T02:56:04;2.63;;;2.20;;
13969;SDS011;7057;49.984;8.404;2022-07-12T02:58:31;1.70;;;1.60;;
13969;SDS011;7057;49.984;8.404;2022-07-12T03:01:00;2.63;;;1.97;;
13969;SDS011;7057;49.984;8.404;2022-07-12T03:03:28;2.67;;;2.00;;
13969;SDS011;7057;49.984;8.404;2022-07-12T03:05:56;2.30;;;2.10;;
13969;SDS011;7057;49.984;8.404;2022-07-12T03:08:23;2.10;;;1.90;;
13969;SDS011;7057;49.984;8.404;2022-07-12T03:10:51;2.10;;;1.90;;
13969;SDS011;7057;49.984;8.404;2022-07-12T03:13:18;2.47;;;2.27;;
13969;SDS011;7057;49.984;8.404;2022-07-12T03:15:45;2.43;;;2.10;;
13969;SDS011;7057;49.984;8.404;2022-07-12T03:18:12;2.57;;;2.10;;
13969;SDS011;7057;49.984;8.404;2022-07-12T03:20:40;2.43;;;2.23;;
13969;SDS011;7057;49.984;8.404;2022-07-12T03:23:09;3.87;;;2.23;;
13969;SDS011;7057;49.984;8.404;2022-07-12T03:25:36;2.83;;;2.10;;
13969;SDS011;7057;49.984;8.404;2022-07-12T03:28:03;2.30;;;2.03;;
13969;SDS011;7057;49.984;8.404;2022-07-12T03:30:30;1.90;;;1.80;;
13969;SDS011;7057;49.984;8.404;2022-07-12T03:32:57;2.60;;;2.03;;
13969;SDS011;7057;49.984;8.404;2022-07-12T03:35:25;2.77;;;2.30;;
13969;SDS011;7057;49.984;8.404;2022-07-12T03:37:52;3.07;;;2.13;;
13969;SDS011;7057;49.984;8.404;2022-07-12T03:40:20;2.77;;;2.07;;
13969;SDS011;7057;49.984;8.404;2022-07-12T03:42:48;2.03;;;1.73;;
13969;SDS011;7057;49.984;8.404;2022-07-12T03:45:16;2.30;;;1.87;;
13969;SDS011;7057;49.984;8.404;2022-07-12T03:47:43;4.30;;;2.00;;
13969;SDS011;7057;49.984;8.404;2022-07-12T03:50:11;2.13;;;1.97;;
13969;SDS011;7057;49.984;8.404;2022-07-12T03:52:40;2.30;;;2.10;;
13969;SDS011;7057;49.984;8.404;2022-07-12T03:55:08;2.00;;;1.80;;
13969;SDS011;7057;49.984;8.404;2022-07-12T03:57:37;2.37;;;2.17;;
13969;SDS011;7057;49.984;8.404;2022-07-12T04:00:08;5.50;;;2.30;;
13969;SDS011;7057;49.984;8.404;2022-07-12T04:02:37;2.07;;;1.90;;
13969;SDS011;7057;49.984;8.404;2022-07-12T04:05:05;2.90;;;1.83;;
13969;SDS011;7057;49.984;8.404;2022-07-12T04:07:33;2.83;;;2.30;;
13969;SDS011;7057;49.984;8.404;2022-07-12T04:10:01;4.00;;;2.23;;
13969;SDS011;7057;49.984;8.404;2022-07-12T04:12:28;2.70;;;2.23;;
13969;SDS011;7057;49.984;8.404;2022-07-12T04:14:56;2.40;;;2.20;;
13969;SDS011;7057;49.984;8.404;2022-07-12T04:17:24;2.50;;;2.07;;
13969;SDS011;7057;49.984;8.404;2022-07-12T04:19:51;3.27;;;2.40;;
13969;SDS011;7057;49.984;8.404;2022-07-12T04:22:18;2.90;;;2.60;;
13969;SDS011;7057;49.984;8.404;2022-07-12T04:24:45;2.93;;;2.30;;
13969;SDS011;7057;49.984;8.404;2022-07-12T04:27:12;2.17;;;1.97;;
13969;SDS011;7057;49.984;8.404;2022-07-12T04:29:39;2.37;;;2.17;;
13969;SDS011;7057;49.984;8.404;2022-07-12T04:32:08;2.57;;;1.93;;
13969;SDS011;7057;49.984;8.404;2022-07-12T04:34:35;2.47;;;2.27;;
13969;SDS011;7057;49.984;8.404;2022-07-12T04:37:03;2.37;;;2.17;;
13969;SDS011;7057;49.984;8.404;2022-07-12T04:39:30;2.57;;;2.03;;
13969;SDS011;7057;49.984;8.404;2022-07-12T04:41:57;2.07;;;1.70;;
13969;SDS011;7057;49.984;8.404;2022-07-12T04:44:24;3.17;;;2.07;;
13969;SDS011;7057;49.984;8.404;2022-07-12T04:46:51;2.67;;;2.20;;
13969;SDS011;7057;49.984;8.404;2022-07-12T04:49:20;2.80;;;2.07;;
13969;SDS011;7057;49.984;8.404;2022-07-12T04:51:47;2.00;;;1.80;;
13969;SDS011;7057;49.984;8.404;2022-07-12T04:54:14;2.53;;;2.03;;
13969;SDS011;7057;49.984;8.404;2022-07-12T04:56:41;2.70;;;2.10;;
13969;SDS011;7057;49.984;8.404;2022-07-12T04:59:08;3.83;;;2.47;;
13969;SDS011;7057;49.984;8.404;2022-07-12T05:01:35;2.60;;;2.37;;
13969;SDS011;7057;49.984;8.404;2022-07-12T05:04:03;2.93;;;2.30;;
13969;SDS011;7057;49.984;8.404;2022-07-12T05:06:32;2.97;;;2.20;;
13969;SDS011;7057;49.984;8.404;2022-07-12T05:08:59;3.83;;;2.10;;
13969;SDS011;7057;49.984;8.404;2022-07-12T05:11:26;2.40;;;2.20;;
13969;SDS011;7057;49.984;8.404;2022-07-12T05:13:53;2.20;;;2.00;;
13969;SDS011;7057;49.984;8.404;2022-07-12T05:16:20;2.93;;;1.97;;
13969;SDS011;7057;49.984;8.404;2022-07-12T05:18:47;2.80;;;2.50;;
13969;SDS011;7057;49.984;8.404;2022-07-12T05:21:15;2.40;;;1.87;;
13969;SDS011;7057;49.984;8.404;2022-07-12T05:23:43;2.87;;;2.13;;
13969;SDS011;7057;49.984;8.404;2022-07-12T05:26:10;2.40;;;2.20;;
13969;SDS011;7057;49.984;8.404;2022-07-12T05:28:37;2.93;;;1.80;;
13969;SDS011;7057;49.984;8.404;2022-07-12T05:31:04;1.80;;;1.70;;
13969;SDS011;7057;49.984;8.404;2022-07-12T05:33:32;2.23;;;2.03;;
13969;SDS011;7057;49.984;8.404;2022-07-12T05:35:59;1.90;;;1.80;;
13969;SDS011;7057;49.984;8.404;2022-07-12T05:38:26;1.87;;;1.70;;
13969;SDS011;7057;49.984;8.404;2022-07-12T05:40:55;2.40;;;1.80;;
13969;SDS011;7057;49.984;8.404;2022-07-12T05:43:22;2.33;;;2.03;;
13969;SDS011;7057;49.984;8.404;2022-07-12T05:45:49;3.53;;;1.97;;
13969;SDS011;7057;49.984;8.404;2022-07-12T05:48:16;2.03;;;1.87;;
13969;SDS011;7057;49.984;8.404;2022-07-12T05:50:43;2.20;;;1.93;;
13969;SDS011;7057;49.984;8.404;2022-07-12T05:53:11;2.40;;;2.20;;
13969;SDS011;7057;49.984;8.404;2022-07-12T05:55:49;2.47;;;1.93;;
13969;SDS011;7057;49.984;8.404;2022-07-12T05:58:19;2.90;;;2.60;;
13969;SDS011;7057;49.984;8.404;2022-07-12T06:00:47;2.33;;;2.13;;
13969;SDS011;7057;49.984;8.404;2022-07-12T06:03:14;2.57;;;2.07;;
13969;SDS011;7057;49.984;8.404;2022-07-12T06:05:42;2.70;;;2.10;;
13969;SDS011;7057;49.984;8.404;2022-07-12T06:08:09;2.47;;;2.20;;
13969;SDS011;7057;49.984;8.404;2022-07-12T06:10:37;2.47;;;2.00;;
13969;SDS011;7057;49.984;8.404;2022-07-12T06:13:04;2.33;;;2.13;;
13969;SDS011;7057;49.984;8.404;2022-07-12T06:15:32;3.03;;;1.90;;
13969;SDS011;7057;49.984;8.404;2022-07-12T06:18:00;3.57;;;2.13;;
13969;SDS011;7057;49.984;8.404;2022-07-12T06:20:27;2.87;;;2.00;;
13969;SDS011;7057;49.984;8.404;2022-07-12T06:22:55;2.33;;;2.13;;
13969;SDS011;7057;49.984;8.404;2022-07-12T06:25:23;1.90;;;1.70;;
13969;SDS011;7057;49.984;8.404;2022-07-12T06:27:50;2.20;;;2.00;;
13969;SDS011;7057;49.984;8.404;2022-07-12T06:30:18;2.20;;;2.00;;
13969;SDS011;7057;49.984;8.404;2022-07-12T06:32:47;2.30;;;2.10;;
13969;SDS011;7057;49.984;8.404;2022-07-12T06:35:15;2.50;;;2.30;;
13969;SDS011;7057;49.984;8.404;2022-07-12T06:37:42;1.90;;;1.80;;
13969;SDS011;7057;49.984;8.404;2022-07-12T06:40:10;3.57;;;1.90;;
13969;SDS011;7057;49.984;8.404;2022-07-12T06:42:40;3.30;;;1.83;;
13969;SDS011;7057;49.984;8.404;2022-07-12T06:45:08;2.43;;;2.00;;
13969;SDS011;7057;49.984;8.404;2022-07-12T06:47:36;1.90;;;1.80;;
13969;SDS011;7057;49.984;8.404;2022-07-12T06:50:05;2.37;;;1.80;;
13969;SDS011;7057;49.984;8.404;2022-07-12T06:52:33;2.27;;;1.57;;
13969;SDS011;7057;49.984;8.404;2022-07-12T06:55:01;1.87;;;1.43;;
13969;SDS011;7057;49.984;8.404;2022-07-12T06:57:28;2.27;;;2.00;;
13969;SDS011;7057;49.984;8.404;2022-07-12T06:59:55;2.07;;;1.83;;
13969;SDS011;7057;49.984;8.404;2022-07-12T07:02:22;1.83;;;1.73;;
13969;SDS011;7057;49.984;8.404;2022-07-12T07:04:50;2.47;;;2.17;;
13969;SDS011;7057;49.984;8.404;2022-07-12T07:07:18;2.70;;;1.90;;
13969;SDS011;7057;49.984;8.404;2022-07-12T07:09:45;2.33;;;1.90;;
13969;SDS011;7057;49.984;8.404;2022-07-12T07:12:12;2.30;;;2.10;;
13969;SDS011;7057;49.984;8.404;2022-07-12T07:14:40;2.23;;;2.00;;
13969;SDS011;7057;49.984;8.404;2022-07-12T07:17:07;1.60;;;1.50;;
13969;SDS011;7057;49.984;8.404;2022-07-12T07:19:36;2.10;;;1.70;;
13969;SDS011;7057;49.984;8.404;2022-07-12T07:22:03;2.10;;;1.90;;
13969;SDS011;7057;49.984;8.404;2022-07-12T07:24:32;2.63;;;1.83;;
13969;SDS011;7057;49.984;8.404;2022-07-12T07:26:59;3.27;;;2.23;;
13969;SDS011;7057;49.984;8.404;2022-07-12T07:29:26;1.80;;;1.70;;
13969;SDS011;7057;49.984;8.404;2022-07-12T07:32:11;2.97;;;1.70;;
13969;SDS011;7057;49.984;8.404;2022-07-12T07:34:38;2.00;;;1.90;;
13969;SDS011;7057;49.984;8.404;2022-07-12T07:37:07;1.87;;;1.77;;
13969;SDS011;7057;49.984;8.404;2022-07-12T07:39:36;1.80;;;1.70;;
13969;SDS011;7057;49.984;8.404;2022-07-12T07:42:03;1.67;;;1.57;;
13969;SDS011;7057;49.984;8.404;2022-07-12T07:44:31;1.47;;;1.37;;
13969;SDS011;7057;49.984;8.404;2022-07-12T07:46:58;1.47;;;1.37;;
13969;SDS011;7057;49.984;8.404;2022-07-12T07:49:25;2.70;;;2.30;;
13969;SDS011;7057;49.984;8.404;2022-07-12T07:51:52;2.57;;;1.60;;
13969;SDS011;7057;49.984;8.404;2022-07-12T07:54:19;1.60;;;1.50;;
13969;SDS011;7057;49.984;8.404;2022-07-12T07:56:48;1.83;;;1.50;;
13969;SDS011;7057;49.984;8.404;2022-07-12T07:59:15;2.07;;;1.57;;
13969;SDS011;7057;49.984;8.404;2022-07-12T08:01:42;2.10;;;1.63;;
13969;SDS011;7057;49.984;8.404;2022-07-12T08:04:10;1.60;;;1.50;;
13969;SDS011;7057;49.984;8.404;2022-07-12T08:06:38;2.03;;;1.60;;
13969;SDS011;7057;49.984;8.404;2022-07-12T08:09:05;1.53;;;1.43;;
13969;SDS011;7057;49.984;8.404;2022-07-12T08:11:32;1.40;;;1.30;;
13969;SDS011;7057;49.984;8.404;2022-07-12T08:14:02;1.70;;;1.60;;
13969;SDS011;7057;49.984;8.404;2022-07-12T08:16:29;1.43;;;1.33;;
13969;SDS011;7057;49.984;8.404;2022-07-12T08:18:57;2.23;;;1.30;;
13969;SDS011;7057;49.984;8.404;2022-07-12T08:21:24;1.87;;;1.30;;
13969;SDS011;7057;49.984;8.404;2022-07-12T08:23:52;1.47;;;1.37;;
13969;SDS011;7057;49.984;8.404;2022-07-12T08:26:20;1.50;;;1.40;;
13969;SDS011;7057;49.984;8.404;2022-07-12T08:28:47;1.50;;;1.37;;
13969;SDS011;7057;49.984;8.404;2022-07-12T08:31:15;1.70;;;1.60;;
13969;SDS011;7057;49.984;8.404;2022-07-12T08:33:43;1.27;;;1.17;;
13969;SDS011;7057;49.984;8.404;2022-07-12T08:36:10;1.40;;;1.30;;
13969;SDS011;7057;49.984;8.404;2022-07-12T08:38:37;2.13;;;1.40;;
13969;SDS011;7057;49.984;8.404;2022-07-12T08:41:06;1.50;;;1.40;;
13969;SDS011;7057;49.984;8.404;2022-07-12T08:43:35;1.90;;;1.80;;
13969;SDS011;7057;49.984;8.404;2022-07-12T08:46:03;1.60;;;1.50;;
13969;SDS011;7057;49.984;8.404;2022-07-12T08:48:33;1.97;;;1.40;;
13969;SDS011;7057;49.984;8.404;2022-07-12T08:51:01;1.43;;;1.33;;
13969;SDS011;7057;49.984;8.404;2022-07-12T08:53:29;1.90;;;1.30;;
13969;SDS011;7057;49.984;8.404;2022-07-12T08:55:57;2.73;;;1.30;;
13969;SDS011;7057;49.984;8.404;2022-07-12T08:58:25;1.47;;;1.20;;
13969;SDS011;7057;49.984;8.404;2022-07-12T09:00:52;1.70;;;1.60;;
13969;SDS011;7057;49.984;8.404;2022-07-12T09:03:19;1.50;;;1.40;;
13969;SDS011;7057;49.984;8.404;2022-07-12T09:05:49;1.53;;;1.43;;
13969;SDS011;7057;49.984;8.404;2022-07-12T09:08:18;1.43;;;1.33;;
13969;SDS011;7057;49.984;8.404;2022-07-12T09:10:52;1.33;;;1.23;;
13969;SDS011;7057;49.984;8.404;2022-07-12T09:16:14;1.80;;;1.70;;
13969;SDS011;7057;49.984;8.404;2022-07-12T09:18:42;2.63;;;1.47;;
13969;SDS011;7057;49.984;8.404;2022-07-12T09:21:10;1.40;;;1.30;;
13969;SDS011;7057;49.984;8.404;2022-07-12T09:23:50;1.90;;;1.60;;
13969;SDS011;7057;49.984;8.404;2022-07-12T09:26:18;2.57;;;1.40;;
13969;SDS011;7057;49.984;8.404;2022-07-12T09:28:47;1.47;;;1.37;;
13969;SDS011;7057;49.984;8.404;2022-07-12T09:31:17;1.37;;;1.23;;
13969;SDS011;7057;49.984;8.404;2022-07-12T09:33:59;1.63;;;1.53;;
13969;SDS011;7057;49.984;8.404;2022-07-12T09:36:55;1.30;;;1.20;;
13969;SDS011;7057;49.984;8.404;2022-07-12T09:39:23;1.87;;;1.50;;
13969;SDS011;7057;49.984;8.404;2022-07-12T09:41:52;1.27;;;1.17;;
13969;SDS011;7057;49.984;8.404;2022-07-12T09:44:20;2.10;;;1.30;;
13969;SDS011;7057;49.984;8.404;2022-07-12T09:46:48;1.90;;;1.40;;
13969;SDS011;7057;49.984;8.404;2022-07-12T09:49:16;1.30;;;1.20;;
13969;SDS011;7057;49.984;8.404;2022-07-12T09:51:46;1.40;;;1.30;;
13969;SDS011;7057;49.984;8.404;2022-07-12T09:54:17;1.20;;;1.10;;
13969;SDS011;7057;49.984;8.404;2022-07-12T09:56:51;2.60;;;1.30;;
13969;SDS011;7057;49.984;8.404;2022-07-12T09:59:20;1.07;;;1.07;;
13969;SDS011;7057;49.984;8.404;2022-07-12T10:01:50;1.30;;;1.20;;
13969;SDS011;7057;49.984;8.404;2022-07-12T10:04:21;1.30;;;1.20;;
13969;SDS011;7057;49.984;8.404;2022-07-12T10:06:49;2.80;;;1.60;;
13969;SDS011;7057;49.984;8.404;2022-07-12T10:09:18;1.37;;;1.27;;
13969;SDS011;7057;49.984;8.404;2022-07-12T10:11:46;1.30;;;1.20;;
13969;SDS011;7057;49.984;8.404;2022-07-12T10:14:14;1.00;;;1.00;;
13969;SDS011;7057;49.984;8.404;2022-07-12T10:16:42;2.10;;;1.10;;
13969;SDS011;7057;49.984;8.404;2022-07-12T10:19:24;1.13;;;1.13;;
13969;SDS011;7057;49.984;8.404;2022-07-12T10:21:52;1.00;;;1.00;;
13969;SDS011;7057;49.984;8.404;2022-07-12T10:24:45;1.07;;;0.97;;
13969;SDS011;7057;49.984;8.404;2022-07-12T10:27:30;2.20;;;1.13;;
13969;SDS011;7057;49.984;8.404;2022-07-12T10:30:14;1.30;;;1.20;;
13969;SDS011;7057;49.984;8.404;2022-07-12T10:32:43;1.40;;;1.30;;
13969;SDS011;7057;49.984;8.404;2022-07-12T10:35:12;1.13;;;1.13;;
13969;SDS011;7057;49.984;8.404;2022-07-12T10:37:40;1.50;;;1.40;;
13969;SDS011;7057;49.984;8.404;2022-07-12T10:40:15;1.40;;;1.30;;
13969;SDS011;7057;49.984;8.404;2022-07-12T10:46:13;1.50;;;1.40;;
13969;SDS011;7057;49.984;8.404;2022-07-12T10:48:45;1.50;;;1.40;;
13969;SDS011;7057;49.984;8.404;2022-07-12T10:51:13;1.40;;;1.30;;
13969;SDS011;7057;49.984;8.404;2022-07-12T10:53:41;1.58;;;1.45;;
13969;SDS011;7057;49.984;8.404;2022-07-12T10:56:12;1.93;;;1.40;;
13969;SDS011;7057;49.984;8.404;2022-07-12T10:58:42;1.37;;;1.27;;
13969;SDS011;7057;49.984;8.404;2022-07-12T11:01:10;2.13;;;1.37;;
13969;SDS011;7057;49.984;8.404;2022-07-12T11:03:39;1.53;;;1.30;;
13969;SDS011;7057;49.984;8.404;2022-07-12T11:06:09;1.63;;;1.40;;
13969;SDS011;7057;49.984;8.404;2022-07-12T11:08:46;1.20;;;1.10;;
13969;SDS011;7057;49.984;8.404;2022-07-12T11:11:15;1.00;;;1.00;;
13969;SDS011;7057;49.984;8.404;2022-07-12T11:13:43;1.37;;;1.20;;
13969;SDS011;7057;49.984;8.404;2022-07-12T11:16:10;1.50;;;1.17;;
13969;SDS011;7057;49.984;8.404;2022-07-12T11:18:38;1.40;;;1.30;;
13969;SDS011;7057;49.984;8.404;2022-07-12T11:21:05;1.30;;;1.20;;
13969;SDS011;7057;49.984;8.404;2022-07-12T11:23:32;2.30;;;1.20;;
13969;SDS011;7057;49.984;8.404;2022-07-12T11:26:00;2.70;;;1.20;;
13969;SDS011;7057;49.984;8.404;2022-07-12T11:28:30;1.43;;;1.20;;
13969;SDS011;7057;49.984;8.404;2022-07-12T11:31:01;1.30;;;1.20;;
13969;SDS011;7057;49.984;8.404;2022-07-12T11:33:30;1.37;;;1.10;;
13969;SDS011;7057;49.984;8.404;2022-07-12T11:35:59;1.33;;;1.20;;
13969;SDS011;7057;49.984;8.404;2022-07-12T11:38:29;1.17;;;1.10;;
13969;SDS011;7057;49.984;8.404;2022-07-12T11:40:56;1.67;;;1.30;;
13969;SDS011;7057;49.984;8.404;2022-07-12T11:43:25;1.10;;;1.10;;
13969;SDS011;7057;49.984;8.404;2022-07-12T11:45:54;1.27;;;1.00;;
13969;SDS011;7057;49.984;8.404;2022-07-12T11:48:22;1.37;;;1.27;;
13969;SDS011;7057;49.984;8.404;2022-07-12T11:50:50;1.53;;;1.20;;
13969;SDS011;7057;49.984;8.404;2022-07-12T11:53:19;1.00;;;1.00;;
13969;SDS011;7057;49.984;8.404;2022-07-12T11:55:48;1.00;;;0.90;;
13969;SDS011;7057;49.984;8.404;2022-07-12T11:58:17;2.60;;;1.10;;
13969;SDS011;7057;49.984;8.404;2022-07-12T12:00:46;1.30;;;1.20;;
13969;SDS011;7057;49.984;8.404;2022-07-12T12:03:16;1.80;;;1.43;;
13969;SDS011;7057;49.984;8.404;2022-07-12T12:05:45;1.10;;;1.00;;
13969;SDS011;7057;49.984;8.404;2022-07-12T12:08:13;1.00;;;1.00;;
13969;SDS011;7057;49.984;8.404;2022-07-12T12:10:42;1.33;;;1.20;;
13969;SDS011;7057;49.984;8.404;2022-07-12T12:13:13;1.30;;;1.20;;
13969;SDS011;7057;49.984;8.404;2022-07-12T12:15:48;1.37;;;1.27;;
13969;SDS011;7057;49.984;8.404;2022-07-12T12:18:26;1.60;;;1.17;;
13969;SDS011;7057;49.984;8.404;2022-07-12T12:20:58;1.47;;;1.30;;
13969;SDS011;7057;49.984;8.404;2022-07-12T12:23:26;1.77;;;1.47;;
13969;SDS011;7057;49.984;8.404;2022-07-12T12:26:07;1.40;;;1.20;;
13969;SDS011;7057;49.984;8.404;2022-07-12T12:28:42;1.20;;;1.20;;
13969;SDS011;7057;49.984;8.404;2022-07-12T12:31:11;1.53;;;1.33;;
13969;SDS011;7057;49.984;8.404;2022-07-12T12:33:40;1.50;;;1.40;;
13969;SDS011;7057;49.984;8.404;2022-07-12T12:36:11;1.20;;;1.10;;
13969;SDS011;7057;49.984;8.404;2022-07-12T12:38:40;1.33;;;1.23;;
13969;SDS011;7057;49.984;8.404;2022-07-12T12:41:08;1.73;;;1.13;;
13969;SDS011;7057;49.984;8.404;2022-07-12T12:43:35;1.40;;;1.30;;
13969;SDS011;7057;49.984;8.404;2022-07-12T12:46:02;1.30;;;1.20;;
13969;SDS011;7057;49.984;8.404;2022-07-12T12:48:30;1.50;;;1.30;;
13969;SDS011;7057;49.984;8.404;2022-07-12T12:51:03;1.10;;;1.10;;
13969;SDS011;7057;49.984;8.404;2022-07-12T12:53:32;1.50;;;1.40;;
13969;SDS011;7057;49.984;8.404;2022-07-12T12:56:00;1.30;;;1.20;;
13969;SDS011;7057;49.984;8.404;2022-07-12T12:58:27;1.37;;;1.27;;
13969;SDS011;7057;49.984;8.404;2022-07-12T13:00:54;1.00;;;1.00;;
13969;SDS011;7057;49.984;8.404;2022-07-12T13:03:23;0.97;;;0.97;;
13969;SDS011;7057;49.984;8.404;2022-07-12T13:05:51;1.63;;;1.25;;
13969;SDS011;7057;49.984;8.404;2022-07-12T13:08:19;1.30;;;1.20;;
13969;SDS011;7057;49.984;8.404;2022-07-12T13:10:47;1.67;;;1.25;;
13969;SDS011;7057;49.984;8.404;2022-07-12T13:13:36;1.30;;;1.20;;
13969;SDS011;7057;49.984;8.404;2022-07-12T13:16:04;1.48;;;1.38;;
13969;SDS011;7057;49.984;8.404;2022-07-12T13:18:32;1.35;;;1.25;;
13969;SDS011;7057;49.984;8.404;2022-07-12T13:20:59;1.38;;;1.20;;
13969;SDS011;7057;49.984;8.404;2022-07-12T13:23:28;1.20;;;1.10;;
13969;SDS011;7057;49.984;8.404;2022-07-12T13:25:55;1.40;;;1.30;;
13969;SDS011;7057;49.984;8.404;2022-07-12T13:28:22;1.20;;;1.10;;
13969;SDS011;7057;49.984;8.404;2022-07-12T13:30:49;1.80;;;1.10;;
13969;SDS011;7057;49.984;8.404;2022-07-12T13:33:20;1.35;;;1.13;;
13969;SDS011;7057;49.984;8.404;2022-07-12T13:35:48;1.33;;;1.23;;
13969;SDS011;7057;49.984;8.404;2022-07-12T13:38:15;1.10;;;1.10;;
13969;SDS011;7057;49.984;8.404;2022-07-12T13:40:44;1.88;;;1.45;;
13969;SDS011;7057;49.984;8.404;2022-07-12T13:43:11;2.10;;;1.10;;
13969;SDS011;7057;49.984;8.404;2022-07-12T13:45:38;1.63;;;1.30;;
13969;SDS011;7057;49.984;8.404;2022-07-12T13:48:09;1.30;;;1.20;;
13969;SDS011;7057;49.984;8.404;2022-07-12T13:50:37;1.30;;;1.20;;
13969;SDS011;7057;49.984;8.404;2022-07-12T13:53:04;1.38;;;1.27;;
13969;SDS011;7057;49.984;8.404;2022-07-12T13:55:32;1.50;;;1.30;;
13969;SDS011;7057;49.984;8.404;2022-07-12T13:58:01;1.60;;;1.30;;
13969;SDS011;7057;49.984;8.404;2022-07-12T14:00:29;1.30;;;1.20;;
13969;SDS011;7057;49.984;8.404;2022-07-12T14:02:56;1.40;;;1.20;;
13969;SDS011;7057;49.984;8.404;2022-07-12T14:05:24;1.53;;;1.40;;
13969;SDS011;7057;49.984;8.404;2022-07-12T14:07:51;1.10;;;1.10;;
13969;SDS011;7057;49.984;8.404;2022-07-12T14:10:19;2.00;;;1.17;;
13969;SDS011;7057;49.984;8.404;2022-07-12T14:12:47;1.42;;;1.30;;
13969;SDS011;7057;49.984;8.404;2022-07-12T14:15:15;1.10;;;1.00;;
13969;SDS011;7057;49.984;8.404;2022-07-12T14:18:01;1.50;;;1.10;;
13969;SDS011;7057;49.984;8.404;2022-07-12T14:20:31;1.30;;;1.20;;
13969;SDS011;7057;49.984;8.404;2022-07-12T14:22:59;1.30;;;1.20;;
13969;SDS011;7057;49.984;8.404;2022-07-12T14:25:26;1.80;;;1.20;;
13969;SDS011;7057;49.984;8.404;2022-07-12T14:27:53;1.20;;;1.10;;
13969;SDS011;7057;49.984;8.404;2022-07-12T14:30:22;1.80;;;1.40;;
13969;SDS011;7057;49.984;8.404;2022-07-12T14:32:49;1.23;;;1.13;;
13969;SDS011;7057;49.984;8.404;2022-07-12T14:35:16;1.30;;;1.20;;
13969;SDS011;7057;49.984;8.404;2022-07-12T14:37:43;1.25;;;1.15;;
13969;SDS011;7057;49.984;8.404;2022-07-12T14:40:11;1.27;;;1.20;;
13969;SDS011;7057;49.984;8.404;2022-07-12T14:42:38;1.33;;;1.00;;
13969;SDS011;7057;49.984;8.404;2022-07-12T14:45:07;1.10;;;1.10;;
13969;SDS011;7057;49.984;8.404;2022-07-12T14:47:35;2.40;;;1.10;;
13969;SDS011;7057;49.984;8.404;2022-07-12T14:50:03;1.10;;;1.00;;
13969;SDS011;7057;49.984;8.404;2022-07-12T14:52:38;1.47;;;1.37;;
13969;SDS011;7057;49.984;8.404;2022-07-12T14:55:05;0.80;;;0.80;;
13969;SDS011;7057;49.984;8.404;2022-07-12T14:57:33;2.30;;;1.07;;
13969;SDS011;7057;49.984;8.404;2022-07-12T15:00:00;5.13;;;1.37;;
13969;SDS011;7057;49.984;8.404;2022-07-12T15:02:27;1.13;;;1.02;;
13969;SDS011;7057;49.984;8.404;2022-07-12T15:04:56;1.10;;;1.10;;
13969;SDS011;7057;49.984;8.404;2022-07-12T15:07:28;1.17;;;1.07;;
13969;SDS011;7057;49.984;8.404;2022-07-12T15:09:55;1.03;;;1.03;;
13969;SDS011;7057;49.984;8.404;2022-07-12T15:12:23;0.90;;;0.90;;
13969;SDS011;7057;49.984;8.404;2022-07-12T15:14:50;0.97;;;0.90;;